createdAt,value
2022-07-30T00:00:59.900Z,18.30
2022-07-30T00:06:03.302Z,18.30
2022-07-30T00:11:06.513Z,18.30
2022-07-30T00:16:12.241Z,18.30
2022-07-30T00:21:20.333Z,18.20
2022-07-30T00:26:39.119Z,18.20
2022-07-30T00:31:44.349Z,18.30
2022-07-30T00:36:47.903Z,18.30
2022-07-30T00:41:59.452Z,18.30
2022-07-30T00:47:04.570Z,18.20
2022-07-30T00:52:08.123Z,18.10
2022-07-30T00:57:11.259Z,18.00
2022-07-30T01:02:15.954Z,18.00
2022-07-30T01:07:19.148Z,17.90
2022-07-30T01:12:26.265Z,17.80
2022-07-30T01:17:31.021Z,17.60
2022-07-30T01:22:41.825Z,17.60
2022-07-30T01:27:49.808Z,17.60
2022-07-30T01:32:54.831Z,17.50
2022-07-30T01:38:01.066Z,17.50
2022-07-30T01:43:08.101Z,17.40
2022-07-30T01:48:13.294Z,17.40
2022-07-30T01:53:18.276Z,17.30
2022-07-30T01:58:26.072Z,17.30
2022-07-30T02:03:30.095Z,17.20
2022-07-30T02:08:40.126Z,17.20
2022-07-30T02:13:51.932Z,17.10
2022-07-30T02:19:06.243Z,17.10
2022-07-30T02:24:14.097Z,17.00
2022-07-30T02:29:20.377Z,17.00
2022-07-30T02:34:25.373Z,16.90
2022-07-30T02:39:30.862Z,16.90
2022-07-30T02:44:38.735Z,17.00
2022-07-30T02:49:44.060Z,17.00
2022-07-30T02:54:49.207Z,17.00
2022-07-30T02:59:56.011Z,16.90
2022-07-30T03:05:00.259Z,16.90
2022-07-30T03:10:04.938Z,17.00
2022-07-30T03:15:11.008Z,17.00
2022-07-30T03:20:17.217Z,17.00
2022-07-30T03:25:24.837Z,17.00
2022-07-30T03:30:30.258Z,17.00
2022-07-30T03:35:34.379Z,17.10
2022-07-30T03:40:37.667Z,17.20
2022-07-30T03:45:45.399Z,17.10
2022-07-30T03:50:49.517Z,17.00
2022-07-30T03:55:53.346Z,17.10
2022-07-30T04:00:57.998Z,17.10
2022-07-30T04:06:01.624Z,17.10
2022-07-30T04:11:04.827Z,17.20
2022-07-30T04:16:39.735Z,17.20
2022-07-30T04:21:42.838Z,17.20
2022-07-30T04:26:47.727Z,17.20
2022-07-30T04:31:54.151Z,17.10
2022-07-30T04:36:57.997Z,17.10
2022-07-30T04:42:01.907Z,17.10
2022-07-30T04:47:07.000Z,17.10
2022-07-30T04:52:12.397Z,17.20
2022-07-30T04:57:17.498Z,17.30
2022-07-30T05:02:24.296Z,17.30
2022-07-30T05:07:28.458Z,17.30
2022-07-30T05:12:37.775Z,17.30
2022-07-30T05:17:42.653Z,17.40
2022-07-30T05:22:50.752Z,17.20
2022-07-30T05:27:56.792Z,17.10
2022-07-30T05:33:03.499Z,17.10
2022-07-30T05:38:11.980Z,17.10
2022-07-30T05:43:15.126Z,17.30
2022-07-30T05:48:19.638Z,17.30
2022-07-30T05:53:23.128Z,17.30
2022-07-30T05:58:26.658Z,17.40
2022-07-30T06:03:31.231Z,17.50
2022-07-30T06:08:34.760Z,17.50
2022-07-30T06:13:38.677Z,17.60
2022-07-30T06:18:43.359Z,17.70
2022-07-30T06:23:46.793Z,17.70
2022-07-30T06:28:50.572Z,17.70
2022-07-30T06:33:55.309Z,17.70
2022-07-30T06:38:58.543Z,17.70
2022-07-30T06:44:01.751Z,17.90
2022-07-30T06:49:06.662Z,17.90
2022-07-30T06:54:10.011Z,17.80
2022-07-30T06:59:13.200Z,17.90
2022-07-30T07:04:17.807Z,18.00
2022-07-30T07:09:20.976Z,18.00
2022-07-30T07:14:24.141Z,18.00
2022-07-30T07:20:01.572Z,18.00
2022-07-30T07:24:52.391Z,17.90
2022-07-30T07:30:05.512Z,17.90
2022-07-30T07:35:12.314Z,17.80
2022-07-30T07:40:15.707Z,17.70
2022-07-30T07:45:19.180Z,17.50
2022-07-30T07:50:24.273Z,17.30
2022-07-30T07:55:27.939Z,17.30
2022-07-30T08:00:34.541Z,17.50
2022-07-30T08:06:00.812Z,17.70
2022-07-30T08:11:02.934Z,17.80
2022-07-30T08:16:12.652Z,17.90
2022-07-30T08:21:17.796Z,17.90
2022-07-30T08:26:21.289Z,17.60
2022-07-30T08:31:24.941Z,17.50
2022-07-30T08:36:29.829Z,17.50
2022-07-30T08:41:33.314Z,17.50
2022-07-30T08:46:37.790Z,17.40
2022-07-30T08:51:43.786Z,17.50
2022-07-30T08:56:49.799Z,17.60
2022-07-30T09:01:53.688Z,17.60
2022-07-30T09:06:59.167Z,17.70
2022-07-30T09:12:02.971Z,17.60
2022-07-30T09:17:07.549Z,17.70
2022-07-30T09:22:15.642Z,17.60
2022-07-30T09:27:19.313Z,17.60
2022-07-30T09:32:22.969Z,17.60
2022-07-30T09:37:28.032Z,17.50
2022-07-30T09:42:32.312Z,17.50
2022-07-30T09:47:37.650Z,17.60
2022-07-30T09:52:49.079Z,17.80
2022-07-30T09:57:58.871Z,18.10
2022-07-30T10:03:12.527Z,18.30
2022-07-30T10:08:41.043Z,18.50
2022-07-30T10:13:45.911Z,18.50
2022-07-30T10:18:50.224Z,18.50
2022-07-30T10:23:55.980Z,18.40
2022-07-30T10:29:02.828Z,18.30
2022-07-30T10:34:06.396Z,18.40
2022-07-30T10:39:16.636Z,18.40
2022-07-30T10:44:52.285Z,18.40
2022-07-30T10:50:11.844Z,18.30
2022-07-30T10:55:17.352Z,18.20
2022-07-30T11:00:20.910Z,18.10
2022-07-30T11:05:27.321Z,18.00
2022-07-30T11:10:49.484Z,17.80
2022-07-30T11:15:59.086Z,17.80
2022-07-30T11:21:21.175Z,17.80
2022-07-30T11:26:44.243Z,17.80
2022-07-30T11:31:56.615Z,17.90
2022-07-30T11:37:22.289Z,18.00
2022-07-30T11:42:36.484Z,18.20
2022-07-30T11:47:41.822Z,18.40
2022-07-30T11:52:45.724Z,18.40
2022-07-30T11:57:49.469Z,18.50
2022-07-30T12:02:54.753Z,18.70
2022-07-30T12:07:59.761Z,18.80
2022-07-30T12:13:11.088Z,19.00
2022-07-30T12:18:26.606Z,19.40
2022-07-30T12:23:31.241Z,19.60
2022-07-30T12:28:36.822Z,19.80
2022-07-30T12:33:42.282Z,19.80
2022-07-30T12:38:50.571Z,20.00
2022-07-30T12:43:55.970Z,20.00
2022-07-30T12:49:06.969Z,20.00
2022-07-30T12:54:25.096Z,20.10
2022-07-30T12:59:29.200Z,20.00
2022-07-30T13:04:39.739Z,20.10
2022-07-30T13:09:43.844Z,20.20
2022-07-30T13:14:50.354Z,20.40
2022-07-30T13:19:55.505Z,20.50
2022-07-30T13:24:58.757Z,20.50
2022-07-30T13:30:01.874Z,20.60
2022-07-30T13:35:07.806Z,20.50
2022-07-30T13:40:11.891Z,20.50
2022-07-30T13:45:15.328Z,20.30
2022-07-30T13:50:20.303Z,20.10
2022-07-30T13:55:23.724Z,20.10
2022-07-30T14:00:32.406Z,20.20
2022-07-30T14:05:42.058Z,20.20
2022-07-30T14:10:45.858Z,20.30
2022-07-30T14:15:49.147Z,20.30
2022-07-30T14:20:53.859Z,20.50
2022-07-30T14:25:57.024Z,20.40
2022-07-30T14:31:00.209Z,20.40
2022-07-30T14:36:05.161Z,20.40
2022-07-30T14:41:08.936Z,20.20
2022-07-30T14:46:12.191Z,20.10
2022-07-30T14:51:23.004Z,20.10
2022-07-30T14:56:29.351Z,20.10
2022-07-30T15:01:32.721Z,20.00
2022-07-30T15:06:42.357Z,20.10
2022-07-30T15:12:07.688Z,20.40
2022-07-30T15:17:09.648Z,20.70
2022-07-30T15:22:14.672Z,20.90
2022-07-30T15:27:18.446Z,21.00
2022-07-30T15:32:21.853Z,20.90
2022-07-30T15:37:26.579Z,21.00
2022-07-30T15:42:31.546Z,21.30
2022-07-30T15:47:35.064Z,21.60
2022-07-30T15:52:40.123Z,21.90
2022-07-30T15:57:44.372Z,22.00
2022-07-30T16:02:47.862Z,22.10
2022-07-30T16:07:52.765Z,22.20
2022-07-30T16:12:56.535Z,22.30
2022-07-30T16:18:00.578Z,22.30
2022-07-30T16:23:08.129Z,22.20
2022-07-30T16:28:16.217Z,22.10
2022-07-30T16:33:20.738Z,21.90
2022-07-30T16:38:26.282Z,21.90
2022-07-30T16:43:32.301Z,21.90
2022-07-30T16:48:35.625Z,21.90
2022-07-30T16:53:40.440Z,21.90
2022-07-30T16:58:43.692Z,21.90
2022-07-30T17:03:47.365Z,21.80
2022-07-30T17:08:52.557Z,21.80
2022-07-30T17:13:56.130Z,21.80
2022-07-30T17:18:59.779Z,21.80
2022-07-30T17:24:14.420Z,21.80
2022-07-30T17:29:18.035Z,21.70
2022-07-30T17:34:21.622Z,21.60
2022-07-30T17:40:29.494Z,21.50
2022-07-30T17:44:50.335Z,21.40
2022-07-30T17:49:53.533Z,21.30
2022-07-30T17:54:58.173Z,21.30
2022-07-30T18:00:01.437Z,21.30
2022-07-30T18:05:05.046Z,21.20
2022-07-30T18:10:10.868Z,21.00
2022-07-30T18:15:14.035Z,21.00
2022-07-30T18:20:17.689Z,20.80
2022-07-30T18:25:23.250Z,20.60
2022-07-30T18:30:26.911Z,20.40
2022-07-30T18:35:30.530Z,20.20
2022-07-30T18:40:35.230Z,20.10
2022-07-30T18:45:38.812Z,20.00
2022-07-30T18:50:42.432Z,19.80
2022-07-30T18:55:47.045Z,19.70
2022-07-30T19:00:51.071Z,19.50
2022-07-30T19:05:54.772Z,19.40
2022-07-30T19:10:59.821Z,19.30
2022-07-30T19:16:03.379Z,19.20
2022-07-30T19:21:09.109Z,19.00
2022-07-30T19:26:17.258Z,18.80
2022-07-30T19:31:20.909Z,18.70
2022-07-30T19:36:24.308Z,18.70
2022-07-30T19:41:37.779Z,18.60
2022-07-30T19:46:41.885Z,18.50
2022-07-30T19:52:02.255Z,18.40
2022-07-30T19:57:10.417Z,18.40
2022-07-30T20:02:15.983Z,18.30
2022-07-30T20:07:19.750Z,18.30
2022-07-30T20:12:25.462Z,18.30
2022-07-30T20:17:30.099Z,18.20
2022-07-30T20:22:38.852Z,18.10
2022-07-30T20:27:45.004Z,18.00
2022-07-30T20:32:52.854Z,18.00
2022-07-30T20:37:56.742Z,17.90
2022-07-30T20:43:05.672Z,17.80
2022-07-30T20:48:16.938Z,17.80
2022-07-30T20:53:23.391Z,17.80
2022-07-30T20:58:28.211Z,17.80
2022-07-30T21:03:31.704Z,17.80
2022-07-30T21:08:35.545Z,17.80
2022-07-30T21:13:41.425Z,17.80
2022-07-30T21:18:49.704Z,17.70
2022-07-30T21:23:53.675Z,17.60
2022-07-30T21:29:01.259Z,17.50
2022-07-30T21:34:04.472Z,17.40
2022-07-30T21:39:07.874Z,17.30
2022-07-30T21:44:12.498Z,17.20
2022-07-30T21:49:15.936Z,17.20
2022-07-30T21:54:28.498Z,17.00
2022-07-30T21:59:33.978Z,16.90
2022-07-30T22:04:37.449Z,16.90
2022-07-30T22:09:41.044Z,16.90
2022-07-30T22:14:49.437Z,16.80
2022-07-30T22:19:54.623Z,16.70
2022-07-30T22:25:00.080Z,16.70
2022-07-30T22:30:05.611Z,16.70
2022-07-30T22:35:10.502Z,16.60
2022-07-30T22:40:15.814Z,16.60
2022-07-30T22:50:45.431Z,16.50
2022-07-30T22:55:55.309Z,16.50
2022-07-30T23:01:00.794Z,16.40
2022-07-30T23:06:03.939Z,16.30
2022-07-30T23:11:07.565Z,16.30
2022-07-30T23:12:34.024Z,16.60
2022-07-30T23:16:12.725Z,16.20
2022-07-30T23:21:16.220Z,16.10
2022-07-30T23:26:19.572Z,16.00
2022-07-30T23:31:26.926Z,16.00
2022-07-30T23:36:30.743Z,16.00
2022-07-30T23:41:34.120Z,16.00
2022-07-30T23:46:38.835Z,15.90
2022-07-30T23:51:42.359Z,15.90
2022-07-30T23:56:45.940Z,15.90
